createdAt,value
2018-12-12T00:00:14.558Z,50
2018-12-12T00:01:16.455Z,50.2
2018-12-12T00:02:18.366Z,50.2
2018-12-12T00:03:20.259Z,50
2018-12-12T00:04:22.404Z,50.2
2018-12-12T00:05:24.299Z,50
2018-12-12T00:06:26.191Z,50.1
2018-12-12T00:07:28.087Z,50
2018-12-12T00:08:29.709Z,50
2018-12-12T00:09:31.087Z,50
2018-12-12T00:10:32.437Z,50.1
2018-12-12T00:11:33.762Z,50.2
2018-12-12T00:12:35.658Z,50
2018-12-12T00:13:37.550Z,50
2018-12-12T00:14:39.165Z,50
2018-12-12T00:15:41.213Z,50
2018-12-12T00:16:42.309Z,50
2018-12-12T00:17:43.924Z,50
2018-12-12T00:18:44.693Z,50.1
2018-12-12T00:19:46.295Z,50.5
2018-12-12T00:20:47.081Z,50.2
2018-12-12T00:21:48.694Z,50.2
2018-12-12T00:22:50.315Z,49.9
2018-12-12T00:23:51.935Z,49.8
2018-12-12T00:24:53.829Z,49.8
2018-12-12T00:25:55.429Z,50
2018-12-12T00:26:56.773Z,50.2
2018-12-12T00:27:58.398Z,49.9
2018-12-12T00:29:00.019Z,50.4
2018-12-12T00:30:01.642Z,50.2
2018-12-12T00:31:03.063Z,50.2
2018-12-12T00:32:04.415Z,50.1
2018-12-12T00:33:06.027Z,50.3
2018-12-12T00:34:07.382Z,50
2018-12-12T00:35:08.706Z,50
2018-12-12T00:36:10.048Z,50.5
2018-12-12T00:37:11.644Z,50
2018-12-12T00:38:12.988Z,50.2
2018-12-12T00:39:14.084Z,50.5
2018-12-12T00:40:15.404Z,50.3
2018-12-12T00:41:17.023Z,50.2
2018-12-12T00:42:18.144Z,50.3
2018-12-12T00:43:19.764Z,50
2018-12-12T00:44:21.385Z,50.3
2018-12-12T00:45:23.002Z,50
2018-12-12T00:46:24.599Z,50
2018-12-12T00:47:26.222Z,49.9
2018-12-12T00:48:27.578Z,50.6
2018-12-12T00:49:29.197Z,50.3
2018-12-12T00:50:30.797Z,50.3
2018-12-12T00:51:32.417Z,50.2
2018-12-12T00:52:33.764Z,50
2018-12-12T00:53:35.656Z,50.3
2018-12-12T00:54:37.550Z,50.2
2018-12-12T00:55:38.872Z,50.3
2018-12-12T00:56:40.490Z,50
2018-12-12T00:57:42.107Z,50.1
2018-12-12T00:58:43.726Z,49.9
2018-12-12T00:59:45.343Z,50.1
2018-12-12T01:02:46.894Z,49.8
2018-12-12T01:03:48.516Z,50.1
2018-12-12T01:04:50.136Z,49.9
2018-12-12T01:05:51.480Z,49.9
2018-12-12T01:06:53.099Z,50
2018-12-12T01:07:54.995Z,50.3
2018-12-12T01:08:56.043Z,50.1
2018-12-12T01:09:57.868Z,50.2
2018-12-12T01:10:59.212Z,50
2018-12-12T01:12:00.560Z,50.1
2018-12-12T01:13:02.177Z,49.9
2018-12-12T01:14:02.961Z,50.2
2018-12-12T01:15:04.562Z,50.1
2018-12-12T01:16:06.235Z,50
2018-12-12T01:17:07.861Z,50.1
2018-12-12T01:18:09.478Z,50
2018-12-12T01:19:10.525Z,50
2018-12-12T01:20:11.871Z,50.5
2018-12-12T01:21:13.493Z,50.3
2018-12-12T01:22:15.389Z,50.2
2018-12-12T01:23:17.001Z,50.4
2018-12-12T01:24:18.886Z,50.1
2018-12-12T01:25:20.505Z,50
2018-12-12T01:26:22.402Z,50
2018-12-12T01:27:24.313Z,50.1
2018-12-12T01:28:26.211Z,50
2018-12-12T01:29:27.557Z,50
2018-12-12T01:30:29.453Z,49.8
2018-12-12T01:31:30.495Z,50.4
2018-12-12T01:32:32.392Z,50.1
2018-12-12T01:33:33.991Z,50.1
2018-12-12T01:34:35.335Z,50.4
2018-12-12T01:35:36.957Z,49.8
2018-12-12T01:36:38.580Z,49.9
2018-12-12T01:37:39.907Z,50.4
2018-12-12T01:38:40.951Z,50.1
2018-12-12T01:39:42.279Z,50.3
2018-12-12T01:40:43.623Z,50.3
2018-12-12T01:41:45.519Z,50.7
2018-12-12T01:42:46.864Z,50.2
2018-12-12T01:43:48.484Z,50.2
2018-12-12T01:44:49.832Z,50.3
2018-12-12T01:45:51.727Z,50.4
2018-12-12T01:46:53.347Z,50.2
2018-12-12T01:47:54.970Z,50.3
2018-12-12T01:48:56.864Z,50.4
2018-12-12T01:49:58.471Z,50.2
2018-12-12T01:51:00.359Z,50.4
2018-12-12T01:52:01.960Z,50.3
2018-12-12T01:53:03.578Z,50.7
2018-12-12T01:54:04.632Z,50.4
2018-12-12T01:55:05.954Z,50.4
2018-12-12T01:56:07.023Z,50.4
2018-12-12T01:57:08.621Z,50.4
2018-12-12T01:58:10.517Z,50.4
2018-12-12T01:59:12.118Z,50.2
2018-12-12T02:00:13.443Z,50.3
2018-12-12T02:01:15.065Z,50.1
2018-12-12T02:02:16.962Z,50.4
2018-12-12T02:03:18.638Z,50.4
2018-12-12T02:04:20.535Z,50.4
2018-12-12T02:05:22.485Z,50.1
2018-12-12T02:06:24.105Z,50.3
2018-12-12T02:07:26.001Z,50.2
2018-12-12T02:08:27.602Z,50.2
2018-12-12T02:09:29.222Z,50.3
2018-12-12T02:10:30.847Z,50.4
2018-12-12T02:11:32.468Z,50.4
2018-12-12T02:12:34.369Z,50.3
2018-12-12T02:13:35.710Z,50.3
2018-12-12T02:14:37.057Z,50.3
2018-12-12T02:15:38.377Z,50.2
2018-12-12T02:16:40.276Z,50.3
2018-12-12T02:17:42.176Z,50.4
2018-12-12T02:18:43.794Z,50.3
2018-12-12T02:19:45.403Z,50.3
2018-12-12T02:20:47.294Z,50.3
2018-12-12T02:21:48.896Z,50.4
2018-12-12T02:22:50.493Z,50.3
2018-12-12T02:23:52.390Z,50.2
2018-12-12T02:24:54.009Z,50.2
2018-12-12T02:25:55.634Z,50.2
2018-12-12T02:26:56.683Z,50.3
2018-12-12T02:27:58.579Z,50.2
2018-12-12T02:29:00.200Z,50.2
2018-12-12T02:30:01.814Z,50.3
2018-12-12T02:31:03.417Z,50.4
2018-12-12T02:32:04.468Z,50.4
2018-12-12T02:33:05.794Z,50.3
2018-12-12T02:34:07.693Z,50.6
2018-12-12T02:35:09.311Z,50.5
2018-12-12T02:36:10.660Z,50.4
2018-12-12T02:37:12.064Z,50.4
2018-12-12T02:38:13.974Z,50.4
2018-12-12T02:39:15.631Z,50.5
2018-12-12T02:40:17.527Z,50.7
2018-12-12T02:41:19.149Z,50.5
2018-12-12T02:42:20.494Z,50.8
2018-12-12T02:43:22.393Z,50.9
2018-12-12T02:44:24.297Z,50.5
2018-12-12T02:45:25.919Z,50.5
2018-12-12T02:46:27.827Z,50.5
2018-12-12T02:47:29.451Z,50.5
2018-12-12T02:48:31.350Z,51.1
2018-12-12T02:49:33.247Z,50.4
2018-12-12T02:50:34.866Z,50.7
2018-12-12T02:51:36.506Z,50.7
2018-12-12T02:52:37.834Z,50.6
2018-12-12T02:53:38.918Z,50.4
2018-12-12T02:54:40.813Z,50.3
2018-12-12T02:55:42.433Z,50.4
2018-12-12T02:56:43.776Z,50.4
2018-12-12T02:57:45.395Z,50.2
2018-12-12T02:58:47.297Z,50.2
2018-12-12T02:59:49.223Z,50.6
2018-12-12T03:00:51.128Z,50.5
2018-12-12T03:01:52.744Z,50.4
2018-12-12T03:02:54.641Z,50.5
2018-12-12T03:03:56.269Z,50.3
2018-12-12T03:04:57.314Z,50.5
2018-12-12T03:05:59.209Z,50.2
2018-12-12T03:07:01.108Z,50.4
2018-12-12T03:08:02.729Z,50.3
2018-12-12T03:09:03.804Z,50.3
2018-12-12T03:10:05.411Z,50.3
2018-12-12T03:11:06.732Z,50.2
2018-12-12T03:12:08.356Z,50.5
2018-12-12T03:13:10.255Z,50.4
2018-12-12T03:14:12.153Z,50.6
2018-12-12T03:15:14.048Z,50.3
2018-12-12T03:16:15.652Z,50.3
2018-12-12T03:17:16.999Z,50.6
2018-12-12T03:18:18.624Z,50.4
2018-12-12T03:19:20.516Z,50.2
2018-12-12T03:20:22.117Z,50.3
2018-12-12T03:21:23.742Z,50.2
2018-12-12T03:22:25.362Z,50.1
2018-12-12T03:23:26.697Z,50.2
2018-12-12T03:24:28.047Z,50.2
2018-12-12T03:25:29.943Z,50.5
2018-12-12T03:26:31.298Z,50.1
2018-12-12T03:27:32.928Z,50.5
2018-12-12T03:28:34.824Z,50
2018-12-12T03:29:36.724Z,49.9
2018-12-12T03:30:38.069Z,50
2018-12-12T03:31:39.691Z,49.8
2018-12-12T03:32:41.638Z,49.8
2018-12-12T03:33:43.533Z,50.1
2018-12-12T03:34:45.134Z,50.3
2018-12-12T03:35:46.240Z,50.3
2018-12-12T03:36:47.831Z,50.1
2018-12-12T03:37:49.452Z,50.2
2018-12-12T03:38:51.348Z,50.1
2018-12-12T03:39:53.244Z,50.1
2018-12-12T03:40:54.869Z,50
2018-12-12T03:41:56.494Z,50.2
2018-12-12T03:42:58.102Z,50.1
2018-12-12T03:43:59.998Z,50.3
2018-12-12T03:45:01.619Z,50.2
2018-12-12T03:46:02.972Z,50.1
2018-12-12T03:47:04.591Z,50
2018-12-12T03:48:05.934Z,50.5
2018-12-12T03:49:07.552Z,50.5
2018-12-12T03:50:08.624Z,50.1
2018-12-12T03:51:09.678Z,50.3
2018-12-12T03:52:11.275Z,50
2018-12-12T03:53:13.171Z,50
2018-12-12T03:54:14.793Z,50.1
2018-12-12T03:55:16.428Z,50
2018-12-12T03:56:18.052Z,49.9
2018-12-12T03:57:19.655Z,50.1
2018-12-12T03:58:21.265Z,50
2018-12-12T03:59:22.598Z,49.8
2018-12-12T04:00:24.492Z,50
2018-12-12T04:01:26.099Z,49.9
2018-12-12T04:02:27.996Z,50.3
2018-12-12T04:03:29.346Z,49.9
2018-12-12T04:04:31.237Z,50.3
2018-12-12T04:05:32.848Z,50.3
2018-12-12T04:06:34.199Z,50
2018-12-12T04:07:35.818Z,50
2018-12-12T04:08:37.715Z,50.3
2018-12-12T04:09:39.336Z,50.4
2018-12-12T04:10:40.955Z,50
2018-12-12T04:11:42.850Z,50.1
2018-12-12T04:12:44.470Z,50
2018-12-12T04:13:46.366Z,50.1
2018-12-12T04:14:47.988Z,50.1
2018-12-12T04:15:49.607Z,50.3
2018-12-12T04:16:51.229Z,50.2
2018-12-12T04:17:53.121Z,50.1
2018-12-12T04:18:54.446Z,50.1
2018-12-12T04:19:56.341Z,50.5
2018-12-12T04:20:58.234Z,49.8
2018-12-12T04:21:59.566Z,50.1
2018-12-12T04:23:01.477Z,50.1
2018-12-12T04:24:03.369Z,50
2018-12-12T04:25:04.970Z,50.4
2018-12-12T04:26:06.567Z,50.3
2018-12-12T04:27:08.192Z,50.3
2018-12-12T04:28:09.254Z,50.2
2018-12-12T04:29:10.874Z,50.1
2018-12-12T04:30:12.198Z,50.1
2018-12-12T04:31:13.524Z,50.1
2018-12-12T04:32:15.147Z,50.1
2018-12-12T04:33:17.047Z,50.3
2018-12-12T04:34:18.665Z,50
2018-12-12T04:35:20.564Z,50.3
2018-12-12T04:36:21.891Z,50
2018-12-12T04:37:23.788Z,50.1
2018-12-12T04:38:25.408Z,50.3
2018-12-12T04:39:27.318Z,50.1
2018-12-12T04:40:28.937Z,50.2
2018-12-12T04:41:30.559Z,50.3
2018-12-12T04:42:32.182Z,50.3
2018-12-12T04:43:34.078Z,50.1
2018-12-12T04:44:35.972Z,50.3
2018-12-12T04:45:37.317Z,50.3
2018-12-12T04:46:38.665Z,50.2
2018-12-12T04:47:40.296Z,50.2
2018-12-12T04:48:41.644Z,50.2
2018-12-12T04:49:42.969Z,50.1
2018-12-12T04:50:44.867Z,50
2018-12-12T04:51:46.768Z,50.1
2018-12-12T04:52:47.815Z,50.1
2018-12-12T04:53:49.141Z,50
2018-12-12T04:54:51.035Z,49.8
2018-12-12T04:55:52.778Z,50.2
2018-12-12T04:56:54.513Z,50.3
2018-12-12T04:57:56.133Z,50.2
2018-12-12T04:58:58.031Z,50.1
2018-12-12T04:59:59.930Z,50.1
2018-12-12T05:01:01.553Z,50.1
2018-12-12T05:02:02.882Z,50.1
2018-12-12T05:03:03.672Z,50.3
2018-12-12T05:04:05.292Z,50.2
2018-12-12T05:05:07.188Z,50.2
2018-12-12T05:06:09.083Z,50.1
2018-12-12T05:07:10.684Z,50.4
2018-12-12T05:08:12.578Z,50.1
2018-12-12T05:09:14.199Z,50.1
2018-12-12T05:10:16.096Z,50.2
2018-12-12T05:11:17.716Z,50
2018-12-12T05:12:19.618Z,50.1
2018-12-12T05:13:21.219Z,50
2018-12-12T05:14:22.819Z,50
2018-12-12T05:15:24.714Z,49.9
2018-12-12T05:16:26.335Z,49.8
2018-12-12T05:17:27.957Z,49.9
2018-12-12T05:18:29.851Z,49.9
2018-12-12T05:19:31.471Z,49.6
2018-12-12T05:20:33.096Z,49.8
2018-12-12T05:21:34.991Z,49.8
2018-12-12T05:22:36.612Z,50
2018-12-12T05:23:37.963Z,49.8
2018-12-12T05:24:39.581Z,49.4
2018-12-12T05:25:41.202Z,49.4
2018-12-12T05:26:43.097Z,49.5
2018-12-12T05:27:44.426Z,49.6
2018-12-12T05:28:46.049Z,49.6
2018-12-12T05:29:46.827Z,49.6
2018-12-12T05:30:48.724Z,49.5
2018-12-12T05:31:49.811Z,49.7
2018-12-12T05:32:51.437Z,49.4
2018-12-12T05:33:53.336Z,49.7
2018-12-12T05:34:54.682Z,49.4
2018-12-12T05:35:56.057Z,49.7
2018-12-12T05:36:57.393Z,49.5
2018-12-12T05:37:58.993Z,49.5
2018-12-12T05:39:00.889Z,49.6
2018-12-12T05:40:02.211Z,49.5
2018-12-12T05:41:03.259Z,49.5
2018-12-12T05:42:05.153Z,49.3
2018-12-12T05:43:06.197Z,49.5
2018-12-12T05:44:08.094Z,49.7
2018-12-12T05:45:09.716Z,49.5
2018-12-12T05:46:11.347Z,49.5
2018-12-12T05:47:12.393Z,49.6
2018-12-12T05:48:13.440Z,49.4
2018-12-12T05:49:15.060Z,49.3
2018-12-12T05:50:16.659Z,49.5
2018-12-12T05:51:18.280Z,49.5
2018-12-12T05:52:19.603Z,49.6
2018-12-12T05:53:21.223Z,49.2
2018-12-12T05:54:22.543Z,49.5
2018-12-12T05:55:24.162Z,49.3
2018-12-12T05:56:26.060Z,49.3
2018-12-12T05:57:27.381Z,49.4
2018-12-12T05:58:29.006Z,49.5
2018-12-12T05:59:30.625Z,49.3
2018-12-12T06:00:31.969Z,49.5
2018-12-12T06:01:33.394Z,49.5
2018-12-12T06:02:35.515Z,49.5
2018-12-12T06:03:37.236Z,49.7
2018-12-12T06:04:39.335Z,49.7
2018-12-12T06:05:40.958Z,49.7
2018-12-12T06:06:42.553Z,49.7
2018-12-12T06:07:44.448Z,49.8
2018-12-12T06:08:45.792Z,49.5
2018-12-12T06:09:47.116Z,49.4
2018-12-12T06:10:48.742Z,49.5
2018-12-12T06:11:50.064Z,49.8
2018-12-12T06:12:51.384Z,49.7
2018-12-12T06:13:52.732Z,49.6
2018-12-12T06:14:54.627Z,49.6
2018-12-12T06:15:56.250Z,49.4
2018-12-12T06:16:57.869Z,49.4
2018-12-12T06:17:59.492Z,49.5
2018-12-12T06:19:01.387Z,49.6
2018-12-12T06:20:02.711Z,49.4
2018-12-12T06:21:04.033Z,49.4
2018-12-12T06:22:05.364Z,49.5
2018-12-12T06:23:06.433Z,49.5
2018-12-12T06:24:08.327Z,49.5
2018-12-12T06:25:09.381Z,49.5
2018-12-12T06:26:11.001Z,49.5
2018-12-12T06:27:12.894Z,49.4
2018-12-12T06:28:14.791Z,49.4
2018-12-12T06:29:16.415Z,49.5
2018-12-12T06:30:18.309Z,49.5
2018-12-12T06:31:19.933Z,49.7
2018-12-12T06:32:21.555Z,49.7
2018-12-12T06:33:23.172Z,49.6
2018-12-12T06:34:24.790Z,49.4
2018-12-12T06:35:26.420Z,49.5
2018-12-12T06:36:28.020Z,49.4
2018-12-12T06:37:29.643Z,49.6
2018-12-12T06:38:30.965Z,49.5
2018-12-12T06:39:32.864Z,49.5
2018-12-12T06:40:34.481Z,49.5
2018-12-12T06:41:36.448Z,49.5
2018-12-12T06:42:38.069Z,49.4
2018-12-12T06:43:39.448Z,49.5
2018-12-12T06:44:41.062Z,49.6
2018-12-12T06:45:42.949Z,49.5
2018-12-12T06:46:44.841Z,49.6
2018-12-12T06:47:46.173Z,49.8
2018-12-12T06:48:47.773Z,49.9
2018-12-12T06:49:49.396Z,49.6
2018-12-12T06:50:51.017Z,49.8
2018-12-12T06:51:52.182Z,49.9
2018-12-12T06:52:54.231Z,49.9
2018-12-12T06:53:55.280Z,50
2018-12-12T06:54:57.179Z,50.2
2018-12-12T06:55:58.827Z,50
2018-12-12T06:57:00.365Z,50.1
2018-12-12T06:58:01.715Z,50.1
2018-12-12T06:59:03.609Z,50.2
2018-12-12T07:00:04.984Z,50.2
2018-12-12T07:01:06.647Z,50.2
2018-12-12T07:02:08.253Z,50.3
2018-12-12T07:03:09.884Z,50.3
2018-12-12T07:04:11.507Z,50.4
2018-12-12T07:05:13.412Z,50.4
2018-12-12T07:06:16.248Z,50.4
2018-12-12T07:07:17.601Z,50.5
2018-12-12T07:08:19.537Z,50.6
2018-12-12T07:09:20.884Z,50.5
2018-12-12T07:10:22.789Z,50.8
2018-12-12T07:11:24.415Z,50.7
2018-12-12T07:12:26.316Z,50.7
2018-12-12T07:13:27.970Z,50.8
2018-12-12T07:14:36.333Z,50.9
2018-12-12T07:15:38.031Z,51
2018-12-12T07:16:39.091Z,51.1
2018-12-12T07:17:40.717Z,51.1
2018-12-12T07:18:42.616Z,51.1
2018-12-12T07:19:43.966Z,51.5
2018-12-12T07:20:45.597Z,51.3
2018-12-12T07:21:47.206Z,51.5
2018-12-12T07:22:49.521Z,51.5
2018-12-12T07:23:51.147Z,51.4
2018-12-12T07:24:52.472Z,51.7
2018-12-12T07:25:53.548Z,51.3
2018-12-12T07:26:55.171Z,51.5
2018-12-12T07:27:57.073Z,51.5
2018-12-12T07:28:58.675Z,51.4
2018-12-12T07:30:00.296Z,51.5
2018-12-12T07:31:01.670Z,51.3
2018-12-12T07:32:03.615Z,51.5
2018-12-12T07:33:05.565Z,51.4
2018-12-12T07:34:07.171Z,51.4
2018-12-12T07:35:08.789Z,51.4
2018-12-12T07:36:09.843Z,51.2
2018-12-12T07:37:11.747Z,51.3
2018-12-12T07:38:13.387Z,51.6
2018-12-12T07:39:18.479Z,51.4
2018-12-12T07:40:20.108Z,51
2018-12-12T07:41:21.233Z,51.1
2018-12-12T07:42:22.905Z,51
2018-12-12T07:43:24.529Z,51
2018-12-12T07:44:26.159Z,50.8
2018-12-12T07:45:27.487Z,50.8
2018-12-12T07:46:28.813Z,50.9
2018-12-12T07:47:29.911Z,50.6
2018-12-12T07:48:31.030Z,50.7
2018-12-12T07:49:32.465Z,50.9
2018-12-12T07:50:34.367Z,50.9
2018-12-12T07:51:36.264Z,50.9
2018-12-12T07:52:38.165Z,50.9
2018-12-12T07:53:39.806Z,50.4
2018-12-12T07:54:41.431Z,50.3
2018-12-12T07:55:43.411Z,50.4
2018-12-12T07:56:45.389Z,50.4
2018-12-12T07:57:47.008Z,50.4
2018-12-12T07:58:48.927Z,50.3
2018-12-12T07:59:50.825Z,50.4
2018-12-12T08:00:52.475Z,50.5
2018-12-12T08:01:53.869Z,50.4
2018-12-12T08:02:55.497Z,51.1
2018-12-12T08:03:57.440Z,50.8
2018-12-12T08:04:58.530Z,50.5
2018-12-12T08:06:00.137Z,50.4
2018-12-12T08:07:01.491Z,50.5
2018-12-12T08:08:03.116Z,50.5
2018-12-12T08:09:04.718Z,50.5
2018-12-12T08:10:06.043Z,50.9
2018-12-12T08:11:07.373Z,50.4
2018-12-12T08:12:10.409Z,50.4
2018-12-12T08:13:11.747Z,50.5
2018-12-12T08:14:13.670Z,50.5
2018-12-12T08:15:15.566Z,50.5
2018-12-12T08:16:16.892Z,50.5
2018-12-12T08:17:18.244Z,50.6
2018-12-12T08:18:19.298Z,50.5
2018-12-12T08:19:20.925Z,50.4
2018-12-12T08:20:22.825Z,50.9
2018-12-12T08:21:24.442Z,50.4
2018-12-12T08:22:25.499Z,50.5
2018-12-12T08:23:26.830Z,50.5
2018-12-12T08:24:28.727Z,50.4
2018-12-12T08:25:30.351Z,50.6
2018-12-12T08:26:32.245Z,50.7
2018-12-12T08:27:34.145Z,50.6
2018-12-12T08:28:35.753Z,50.9
2018-12-12T08:29:37.648Z,50.8
2018-12-12T08:30:38.983Z,50.9
2018-12-12T08:31:40.332Z,50.8
2018-12-12T08:32:42.229Z,50.6
2018-12-12T08:33:44.128Z,50.9
2018-12-12T08:34:44.902Z,50.9
2018-12-12T08:35:46.529Z,50.7
2018-12-12T08:36:48.168Z,50.9
2018-12-12T08:37:49.774Z,50.8
2018-12-12T08:38:51.402Z,50.7
2018-12-12T08:39:53.300Z,50.8
2018-12-12T08:40:54.393Z,50.7
2018-12-12T08:41:56.108Z,50.9
2018-12-12T08:42:58.004Z,50.8
2018-12-12T08:43:59.632Z,50.8
2018-12-12T08:45:01.258Z,51
2018-12-12T08:46:02.308Z,50.8
2018-12-12T08:47:03.686Z,50.7
2018-12-12T08:48:05.580Z,50.8
2018-12-12T08:49:08.466Z,50.7
2018-12-12T08:50:09.830Z,50.7
2018-12-12T08:51:11.155Z,50.7
2018-12-12T08:52:13.059Z,50.5
2018-12-12T08:53:14.957Z,50.6
2018-12-12T08:54:16.291Z,50.6
2018-12-12T08:55:18.190Z,50.4
2018-12-12T08:56:20.091Z,50.4
2018-12-12T08:57:21.697Z,50.4
2018-12-12T08:58:23.026Z,50.4
2018-12-12T08:59:24.650Z,50.3
2018-12-12T09:00:26.271Z,50.5
2018-12-12T09:01:27.616Z,50.4
2018-12-12T09:02:29.560Z,50.4
2018-12-12T09:03:31.191Z,50.5
2018-12-12T09:04:32.537Z,50.4
2018-12-12T09:05:33.885Z,50.4
2018-12-12T09:06:35.237Z,50.4
2018-12-12T09:07:37.138Z,50.5
2018-12-12T09:08:39.035Z,50.6
2018-12-12T09:09:40.656Z,50.5
2018-12-12T09:10:42.006Z,50.5
2018-12-12T09:11:43.357Z,50.5
2018-12-12T09:12:44.984Z,50.6
2018-12-12T09:13:46.312Z,50.6
2018-12-12T09:14:47.914Z,50.6
2018-12-12T09:15:49.536Z,50.7
2018-12-12T09:16:51.437Z,50.7
2018-12-12T09:17:53.059Z,50.7
2018-12-12T09:18:54.680Z,50.2
2018-12-12T09:19:56.346Z,50.4
2018-12-12T09:20:57.396Z,50.4
2018-12-12T09:21:59.019Z,50.2
2018-12-12T09:23:00.946Z,50.3
2018-12-12T09:24:02.420Z,50.2
2018-12-12T09:25:03.739Z,50.8
2018-12-12T09:26:05.172Z,50.4
2018-12-12T09:27:06.503Z,50.4
2018-12-12T09:28:07.901Z,50.6
2018-12-12T09:29:09.250Z,50.5
2018-12-12T09:30:10.919Z,50.6
2018-12-12T09:31:12.595Z,50.5
2018-12-12T09:32:14.495Z,50.7
2018-12-12T09:33:16.115Z,50.4
2018-12-12T09:34:18.014Z,50.7
2018-12-12T09:35:19.917Z,50.6
2018-12-12T09:36:21.539Z,50.4
2018-12-12T09:37:23.436Z,50.6
2018-12-12T09:38:25.057Z,50.6
2018-12-12T09:39:26.686Z,50.3
2018-12-12T09:40:28.314Z,50.4
2018-12-12T09:41:30.215Z,50.4
2018-12-12T09:42:31.837Z,50.5
2018-12-12T09:43:33.444Z,50.4
2018-12-12T09:44:34.801Z,50.5
2018-12-12T09:45:36.423Z,50.5
2018-12-12T09:46:38.323Z,50.5
2018-12-12T09:47:39.931Z,50.7
2018-12-12T09:48:41.836Z,50.7
2018-12-12T09:49:43.462Z,50.6
2018-12-12T09:50:45.086Z,50.7
2018-12-12T09:51:46.765Z,50.4
2018-12-12T09:52:48.365Z,50.3
2018-12-12T09:53:49.694Z,50.6
2018-12-12T09:54:51.317Z,50.3
2018-12-12T09:55:52.368Z,50.3
2018-12-12T09:56:53.720Z,50.4
2018-12-12T09:57:55.345Z,50.1
2018-12-12T09:58:57.285Z,50.5
2018-12-12T09:59:59.184Z,50.3
2018-12-12T10:01:00.803Z,50.3
2018-12-12T10:02:02.720Z,49.8
2018-12-12T10:03:04.346Z,50.5
2018-12-12T10:04:07.789Z,50.3
2018-12-12T10:05:09.195Z,50.1
2018-12-12T10:06:10.817Z,50.2
2018-12-12T10:07:12.441Z,50.2
2018-12-12T10:08:13.793Z,49.9
2018-12-12T10:09:15.837Z,50.2
2018-12-12T10:10:17.745Z,49.9
2018-12-12T10:11:19.075Z,49.9
2018-12-12T10:12:21.024Z,50.2
2018-12-12T10:13:22.924Z,50.3
2018-12-12T10:14:24.535Z,50.4
2018-12-12T10:15:26.435Z,50.3
2018-12-12T10:16:27.764Z,50.3
2018-12-12T10:17:29.165Z,50.6
2018-12-12T10:18:30.796Z,50.9
2018-12-12T10:19:32.157Z,51.3
2018-12-12T10:20:33.206Z,51.6
2018-12-12T10:21:34.571Z,51.2
2018-12-12T10:22:36.519Z,51.4
2018-12-12T10:23:38.424Z,51.5
2018-12-12T10:24:40.023Z,51.4
2018-12-12T10:25:41.992Z,51.2
2018-12-12T10:26:43.354Z,50.9
2018-12-12T10:27:44.732Z,51
2018-12-12T10:28:46.084Z,51.1
2018-12-12T10:29:47.703Z,50.9
2018-12-12T10:30:48.493Z,51
2018-12-12T10:31:49.566Z,50.7
2018-12-12T10:32:50.741Z,50.8
2018-12-12T10:33:52.376Z,51
2018-12-12T10:34:53.426Z,51
2018-12-12T10:35:54.777Z,51
2018-12-12T10:36:56.404Z,50.9
2018-12-12T10:37:58.416Z,50.8
2018-12-12T10:38:59.794Z,50.8
2018-12-12T10:40:01.702Z,50.8
2018-12-12T10:41:03.607Z,50.7
2018-12-12T10:42:04.936Z,50.7
2018-12-12T10:43:06.835Z,50.9
2018-12-12T10:44:08.459Z,50.9
2018-12-12T10:45:10.356Z,51.5
2018-12-12T10:46:12.255Z,50.7
2018-12-12T10:47:14.156Z,50.9
2018-12-12T10:48:16.234Z,50.7
2018-12-12T10:49:17.860Z,50.8
2018-12-12T10:50:18.637Z,50.7
2018-12-12T10:51:20.261Z,50.9
2018-12-12T10:52:21.885Z,50.8
2018-12-12T10:53:23.515Z,50.7
2018-12-12T10:54:25.140Z,50.5
2018-12-12T10:55:26.515Z,50.8
2018-12-12T10:56:28.521Z,50.9
2018-12-12T10:57:30.425Z,50.9
2018-12-12T10:58:31.826Z,50.9
2018-12-12T10:59:33.447Z,50.9
2018-12-12T11:00:35.073Z,50.7
2018-12-12T11:01:36.704Z,50.9
2018-12-12T11:02:38.336Z,50.9
2018-12-12T11:03:44.848Z,50.7
2018-12-12T11:04:46.750Z,50.7
2018-12-12T11:05:48.393Z,50.4
2018-12-12T11:06:50.020Z,50.4
2018-12-12T11:07:51.959Z,50.5
2018-12-12T11:08:53.860Z,50.4
2018-12-12T11:09:55.495Z,50.4
2018-12-12T11:10:56.823Z,50.5
2018-12-12T11:11:57.878Z,50.5
2018-12-12T11:12:59.801Z,50.6
2018-12-12T11:14:01.708Z,50.7
2018-12-12T11:15:03.052Z,50.3
2018-12-12T11:16:05.486Z,50.7
2018-12-12T11:17:06.831Z,50.5
2018-12-12T11:18:07.903Z,50.6
2018-12-12T11:19:09.229Z,50.5
2018-12-12T11:20:10.862Z,50.8
2018-12-12T11:21:12.194Z,50.5
2018-12-12T11:22:13.517Z,50.5
2018-12-12T11:23:15.204Z,50.4
2018-12-12T11:24:16.550Z,50.5
2018-12-12T11:25:18.174Z,50.5
2018-12-12T11:26:19.795Z,50.4
2018-12-12T11:27:21.711Z,50.5
2018-12-12T11:28:23.339Z,50.5
2018-12-12T11:29:25.237Z,50.4
2018-12-12T11:30:27.138Z,50.5
2018-12-12T11:31:28.191Z,50.5
2018-12-12T11:32:29.814Z,50.7
2018-12-12T11:33:31.436Z,50.4
2018-12-12T11:34:33.060Z,50.7
2018-12-12T11:35:34.425Z,50.7
2018-12-12T11:36:36.026Z,50.4
2018-12-12T11:37:38.902Z,50.5
2018-12-12T11:38:40.506Z,50.4
2018-12-12T11:39:42.408Z,50.4
2018-12-12T11:40:43.734Z,50.2
2018-12-12T11:41:45.124Z,50.3
2018-12-12T11:42:46.173Z,50.3
2018-12-12T11:43:48.073Z,50.4
2018-12-12T11:44:49.973Z,50.2
2018-12-12T11:45:51.602Z,50
2018-12-12T11:46:53.225Z,50.2
2018-12-12T11:47:55.123Z,49.8
2018-12-12T11:48:57.025Z,50
2018-12-12T11:49:58.649Z,50.2
2018-12-12T11:51:00.248Z,50
2018-12-12T11:52:01.876Z,50.2
2018-12-12T11:53:03.224Z,50.4
2018-12-12T11:54:04.552Z,50
2018-12-12T11:55:05.904Z,50.3
2018-12-12T11:56:06.953Z,50
2018-12-12T11:57:08.853Z,50.1
2018-12-12T11:58:10.474Z,50
2018-12-12T11:59:12.076Z,50.2
2018-12-12T12:00:13.977Z,50
2018-12-12T12:01:15.633Z,50.2
2018-12-12T12:02:17.235Z,50.1
2018-12-12T12:03:19.138Z,49.7
2018-12-12T12:04:20.469Z,49.9
2018-12-12T12:05:22.145Z,50.2
2018-12-12T12:06:23.475Z,49.9
2018-12-12T12:07:25.368Z,50.2
2018-12-12T12:08:27.271Z,49.9
2018-12-12T12:09:29.097Z,49.5
2018-12-12T12:10:30.443Z,49.8
2018-12-12T12:11:32.060Z,49.8
2018-12-12T12:12:33.409Z,49.7
2018-12-12T12:13:34.480Z,49.5
2018-12-12T12:14:36.108Z,50
2018-12-12T12:15:38.106Z,49.6
2018-12-12T12:16:40.066Z,50
2018-12-12T12:17:42.090Z,49.7
2018-12-12T12:18:43.474Z,49.7
2018-12-12T12:19:45.378Z,49.8
2018-12-12T12:20:46.708Z,49.6
2018-12-12T12:21:48.032Z,49.6
2018-12-12T12:22:49.927Z,49.9
2018-12-12T12:23:51.270Z,49.9
2018-12-12T12:24:52.876Z,49.9
2018-12-12T12:25:54.218Z,49.9
2018-12-12T12:26:56.115Z,50
2018-12-12T12:27:57.458Z,49.8
2018-12-12T12:28:59.078Z,49.9
2018-12-12T12:30:00.973Z,49.9
2018-12-12T12:31:02.646Z,49.4
2018-12-12T12:32:04.271Z,49.4
2018-12-12T12:33:06.166Z,49.6
2018-12-12T12:34:07.792Z,49.5
2018-12-12T12:35:09.414Z,49.8
2018-12-12T12:36:11.313Z,49.6
2018-12-12T12:37:13.207Z,49.8
2018-12-12T12:38:14.830Z,49.7
2018-12-12T12:39:16.446Z,49.6
2018-12-12T12:40:17.789Z,49.5
2018-12-12T12:41:19.416Z,49.4
2018-12-12T12:42:20.762Z,49.5
2018-12-12T12:43:22.387Z,49.9
2018-12-12T12:44:24.299Z,49.9
2018-12-12T12:45:26.198Z,49.7
2018-12-12T12:46:27.525Z,49.5
2018-12-12T12:47:28.854Z,49.5
2018-12-12T12:48:30.748Z,49.4
2018-12-12T12:49:32.095Z,49.5
2018-12-12T12:50:33.446Z,49.4
2018-12-12T12:51:35.097Z,49.8
2018-12-12T12:52:36.697Z,49.5
2018-12-12T12:53:38.595Z,49.7
2018-12-12T12:54:40.216Z,49.7
2018-12-12T12:55:42.112Z,49.6
2018-12-12T12:56:43.734Z,49.8
2018-12-12T12:57:45.631Z,49.7
2018-12-12T12:58:46.979Z,49.8
2018-12-12T12:59:48.605Z,49.8
2018-12-12T13:00:49.956Z,49.9
2018-12-12T13:01:51.861Z,49.8
2018-12-12T13:02:54.565Z,49.8
2018-12-12T13:03:55.914Z,49.8
2018-12-12T13:04:57.534Z,49.5
2018-12-12T13:05:59.431Z,49.6
2018-12-12T13:07:01.326Z,49.3
2018-12-12T13:08:02.655Z,49.8
2018-12-12T13:09:03.983Z,49.6
2018-12-12T13:10:11.840Z,49.5
2018-12-12T13:11:15.194Z,49.4
2018-12-12T13:12:16.664Z,49.4
2018-12-12T13:13:18.952Z,49.5
2018-12-12T13:14:21.396Z,49.2
2018-12-12T13:15:22.719Z,48.8
2018-12-12T13:16:24.320Z,49.1
2018-12-12T13:17:25.944Z,48.9
2018-12-12T13:18:27.567Z,48.9
2018-12-12T13:19:29.460Z,49
2018-12-12T13:20:31.079Z,48.9
2018-12-12T13:21:32.808Z,49.2
2018-12-12T13:22:34.708Z,49
2018-12-12T13:23:36.328Z,49.3
2018-12-12T13:24:37.951Z,49.1
2018-12-12T13:25:39.560Z,48.7
2018-12-12T13:26:40.612Z,48.7
2018-12-12T13:27:41.667Z,49.1
2018-12-12T13:28:43.290Z,48.4
2018-12-12T13:29:44.913Z,48.5
2018-12-12T13:30:46.237Z,49
2018-12-12T13:31:47.910Z,48.8
2018-12-12T13:32:49.509Z,49
2018-12-12T13:33:51.411Z,48.5
2018-12-12T13:34:53.034Z,48.7
2018-12-12T13:35:54.930Z,48.6
2018-12-12T13:36:56.831Z,48.6
2018-12-12T13:37:58.455Z,48.4
2018-12-12T13:38:59.802Z,48.5
2018-12-12T13:40:01.138Z,48.7
2018-12-12T13:41:02.475Z,48.5
2018-12-12T13:42:04.078Z,48.2
2018-12-12T13:43:05.152Z,48.3
2018-12-12T13:44:06.758Z,48.2
2018-12-12T13:45:08.653Z,48.1
2018-12-12T13:46:10.276Z,48
2018-12-12T13:47:17.724Z,48.2